Time;durP1;ratioP1;P1;durP2;ratioP2;P2;SDS_P1;SDS_P2;PMS_P1;PMS_P2;Temp;Humidity;BMP_temperature;BMP_pressure;BME280_temperature;BME280_humidity;BME280_pressure;Samples;Min_cycle;Max_cycle;Signal;HPM_P1;HPM_P2
2021/01/20 00:05:25;;;;;;;10.68;5.15;;;;;;;-0.57;94.95;99906.66;20979361;28;20048;-73
2021/01/20 00:15:25;;;;;;;11.13;5.00;;;;;;;-0.68;96.70;99889.72;20981608;28;20048;-72
2021/01/20 00:25:26;;;;;;;10.15;4.85;;;;;;;-0.71;96.78;99887.22;20980033;28;20602;-72
2021/01/20 00:35:27;;;;;;;9.52;4.45;;;;;;;-0.53;95.31;99871.47;20978919;28;20053;-72
2021/01/20 00:45:28;;;;;;;8.82;4.07;;;;;;;-0.13;91.43;99857.00;20979735;28;20044;-73
2021/01/20 00:55:29;;;;;;;9.38;4.45;;;;;;;0.23;89.23;99845.09;20979275;28;20094;-73
2021/01/20 01:05:30;;;;;;;8.75;4.20;;;;;;;0.63;87.36;99839.06;20972586;28;20044;-73
2021/01/20 01:15:31;;;;;;;8.98;4.20;;;;;;;0.47;87.65;99833.41;20978226;28;20094;-73
2021/01/20 01:25:32;;;;;;;8.73;4.38;;;;;;;0.34;87.80;99834.59;20978260;28;20135;-73
2021/01/20 01:35:33;;;;;;;9.57;4.32;;;;;;;0.44;87.75;99823.19;20972628;28;20052;-73
2021/01/20 01:45:34;;;;;;;7.85;3.78;;;;;;;0.67;85.37;99833.81;20977079;28;20040;-73
2021/01/20 01:55:36;;;;;;;9.40;4.22;;;;;;;0.71;86.83;99827.69;20976616;28;20051;-72
2021/01/20 02:05:37;;;;;;;9.20;3.67;;;;;;;0.78;85.79;99818.09;20971594;28;20045;-72
2021/01/20 02:15:56;;;;;;;10.85;4.60;;;;;;;0.89;85.31;99810.13;20975477;28;20043;-73
2021/01/20 02:26:14;;;;;;;11.13;4.10;;;;;;;0.86;84.71;99801.56;20982746;28;20389;-70
2021/01/20 02:36:17;;;;;;;12.17;4.40;;;;;;;0.63;86.35;99797.88;20988658;28;20044;-70
2021/01/20 02:46:20;;;;;;;6.80;3.60;;;;;;;0.53;87.77;99796.41;20989987;28;20495;-72
2021/01/20 02:56:25;;;;;;;9.20;4.50;;;;;;;0.39;88.15;99789.84;20989044;28;20036;-73
2021/01/20 03:06:31;;;;;;;8.30;3.90;;;;;;;0.37;88.13;99780.44;20987265;28;20060;-73
2021/01/20 03:16:32;;;;;;;7.40;3.60;;;;;;;0.46;87.97;99769.13;20984462;28;20045;-73
2021/01/20 03:26:33;;;;;;;7.03;3.25;;;;;;;0.63;87.72;99756.66;20986814;28;20443;-73
2021/01/20 03:36:34;;;;;;;8.40;3.50;;;;;;;0.85;85.98;99747.53;20983937;28;20052;-73
2021/01/20 03:46:35;;;;;;;8.43;3.20;;;;;;;0.82;87.85;99739.88;20985208;28;20039;-73
2021/01/20 03:56:36;;;;;;;6.10;3.00;;;;;;;0.99;85.59;99718.84;20966543;28;20072;-73
2021/01/20 04:06:37;;;;;;;6.93;2.92;;;;;;;1.19;84.26;99708.84;20982292;28;20040;-72
2021/01/20 04:16:42;;;;;;;7.30;3.20;;;;;;;1.23;84.53;99710.44;20982270;28;20045;-69
2021/01/20 04:26:44;;;;;;;8.18;3.10;;;;;;;1.21;85.45;99707.94;20964890;28;20094;-69
2021/01/20 04:36:45;;;;;;;7.10;3.45;;;;;;;1.35;83.96;99696.38;20977011;28;20048;-69
2021/01/20 04:46:47;;;;;;;6.80;3.50;;;;;;;1.37;84.46;99694.63;20979055;28;20054;-69
2021/01/20 04:56:49;;;;;;;7.90;3.45;;;;;;;1.34;84.30;99684.38;20979401;28;20072;-70
2021/01/20 05:06:50;;;;;;;7.50;3.13;;;;;;;1.45;83.86;99693.50;20978734;28;20040;-69
2021/01/20 05:16:53;;;;;;;7.03;3.20;;;;;;;1.41;83.93;99693.63;20980535;28;20057;-69
2021/01/20 05:26:54;;;;;;;7.65;3.28;;;;;;;1.40;83.85;99685.06;20977707;28;20115;-70
2021/01/20 05:37:04;;;;;;;7.53;3.35;;;;;;;1.39;84.45;99683.34;20976262;28;20114;-70
2021/01/20 05:47:06;;;;;;;9.05;3.53;;;;;;;1.36;83.80;99678.28;20976282;28;20051;-71
2021/01/20 05:57:19;;;;;;;10.27;5.70;;;;;;;1.48;83.02;99672.78;20980383;28;20045;-72
2021/01/20 06:07:21;;;;;;;21.50;8.13;;;;;;;1.55;83.28;99670.88;20970746;28;20052;-71
2021/01/20 06:17:36;;;;;;;11.65;4.85;;;;;;;1.56;83.04;99668.25;20991214;28;20041;-71
2021/01/20 06:27:42;;;;;;;;;;;;;;;1.57;83.42;99662.22;20987718;28;20128;-71
2021/01/20 06:37:47;;;;;;;;;;;;;;;1.60;83.78;99656.94;20968449;28;19924;-70
2021/01/20 06:48:00;;;;;;;7.10;3.40;;;;;;;1.67;81.93;99650.72;20989144;28;19998;-70
2021/01/20 06:58:24;;;;;;;8.07;3.80;;;;;;;1.77;82.07;99637.53;20988867;28;20044;-70
2021/01/20 07:08:51;;;;;;;8.25;3.63;;;;;;;1.86;81.64;99638.09;20964096;28;20079;-71
2021/01/20 07:18:52;;;;;;;10.45;4.35;;;;;;;1.98;81.31;99624.78;20991262;28;20091;-71
2021/01/20 07:28:53;;;;;;;11.65;5.10;;;;;;;2.05;80.37;99630.63;20973350;28;20053;-71
2021/01/20 07:38:54;;;;;;;9.82;4.18;;;;;;;2.11;79.91;99620.94;20990707;28;20048;-71
2021/01/20 07:48:55;;;;;;;11.00;5.13;;;;;;;2.08;80.64;99608.13;20990841;28;20044;-69
2021/01/20 07:59:12;;;;;;;11.98;5.43;;;;;;;2.08;81.24;99596.97;20989856;28;20058;-70
2021/01/20 08:09:13;;;;;;;9.38;4.05;;;;;;;2.16;81.20;99602.72;20983021;28;20095;-69
2021/01/20 08:19:17;;;;;;;17.30;7.22;;;;;;;2.20;80.84;99587.97;20987564;28;20455;-70
2021/01/20 08:29:21;;;;;;;10.90;5.55;;;;;;;2.22;82.96;99593.94;20986832;28;20053;-70
2021/01/20 08:39:23;;;;;;;12.23;5.47;;;;;;;2.32;84.51;99606.50;20984091;28;20044;-71
2021/01/20 08:49:24;;;;;;;11.35;5.50;;;;;;;2.50;80.60;99589.50;20985227;28;20040;-71
2021/01/20 08:59:51;;;;;;;11.05;5.43;;;;;;;2.75;79.73;99581.75;20985165;28;20049;-70
2021/01/20 09:09:52;;;;;;;12.30;5.18;;;;;;;3.07;79.97;99568.50;20984118;28;20040;-71
2021/01/20 09:19:52;;;;;;;11.07;4.97;;;;;;;3.32;79.73;99556.34;20984352;28;20049;-70
2021/01/20 09:29:53;;;;;;;12.50;4.60;;;;;;;3.56;79.95;99556.28;20982306;28;20492;-70
2021/01/20 09:39:54;;;;;;;11.55;5.85;;;;;;;3.93;76.90;99533.22;20980637;28;20408;-71
2021/01/20 09:49:55;;;;;;;17.33;7.00;;;;;;;4.41;75.99;99524.28;20982637;28;20045;-71
2021/01/20 09:59:56;;;;;;;15.77;7.53;;;;;;;4.91;73.37;99515.13;20981878;28;20050;-71
2021/01/20 10:09:58;;;;;;;5.88;3.00;;;;;;;5.16;72.59;99515.69;20957739;28;20094;-70
2021/01/20 10:20:00;;;;;;;5.75;2.55;;;;;;;5.42;72.71;99483.31;20980956;28;20055;-70
2021/01/20 10:30:02;;;;;;;10.40;4.50;;;;;;;5.39;74.30;99469.63;20980876;28;20071;-71
2021/01/20 10:40:04;;;;;;;10.13;4.97;;;;;;;5.51;75.49;99463.88;20956358;28;20052;-70
2021/01/20 10:50:05;;;;;;;10.90;4.90;;;;;;;5.29;75.15;99442.44;20992410;28;20506;-70
2021/01/20 11:00:07;;;;;;;15.90;7.13;;;;;;;4.98;77.96;99432.69;20993670;28;20044;-70
2021/01/20 11:10:10;;;;;;;11.73;6.25;;;;;;;5.29;74.42;99408.72;20990632;28;20040;-70
2021/01/20 11:20:11;;;;;;;16.40;8.88;;;;;;;5.51;75.60;99386.00;20992276;28;20044;-70
2021/01/20 11:30:13;;;;;;;12.77;7.18;;;;;;;5.88;73.96;99370.28;20991081;28;20048;-70
2021/01/20 11:40:14;;;;;;;14.48;7.97;;;;;;;6.29;73.79;99362.94;20984850;28;20045;-70
2021/01/20 11:50:15;;;;;;;16.60;7.55;;;;;;;6.40;75.53;99349.31;20989475;28;20278;-69
2021/01/20 12:00:19;;;;;;;23.40;9.35;;;;;;;6.43;75.69;99337.03;20989047;28;20048;-69
2021/01/20 12:10:20;;;;;;;15.77;8.32;;;;;;;6.41;75.56;99312.88;20987107;28;20501;-69
2021/01/20 12:20:21;;;;;;;12.70;6.97;;;;;;;6.54;76.11;99284.44;20987280;28;20730;-70
2021/01/20 12:30:22;;;;;;;12.68;6.85;;;;;;;6.78;75.91;99257.06;20979469;28;21246;-70
2021/01/20 12:40:23;;;;;;;13.30;6.82;;;;;;;6.83;77.29;99242.03;20984034;28;20554;-69
2021/01/20 12:50:24;;;;;;;13.32;6.22;;;;;;;6.98;77.41;99240.31;20982403;28;20201;-69
2021/01/20 13:00:32;;;;;;;15.68;8.00;;;;;;;7.18;76.01;99219.16;20979915;28;20036;-69
2021/01/20 13:10:33;;;;;;;12.10;5.60;;;;;;;7.31;72.97;99201.88;20982733;28;20048;-70
2021/01/20 13:20:34;;;;;;;19.23;10.23;;;;;;;7.65;72.83;99190.28;20983449;28;20036;-70
2021/01/20 13:30:37;;;;;;;9.90;4.38;;;;;;;7.59;71.44;99177.63;20982563;28;20051;-70
2021/01/20 13:40:38;;;;;;;10.77;3.58;;;;;;;7.87;70.19;99153.31;20982136;28;20045;-70
2021/01/20 13:50:39;;;;;;;11.27;3.78;;;;;;;7.61;72.73;99141.09;20982094;28;20048;-70
2021/01/20 14:00:40;;;;;;;11.10;3.80;;;;;;;7.62;72.72;99137.53;20963653;28;20058;-70
2021/01/20 14:10:41;;;;;;;10.07;3.78;;;;;;;7.88;70.57;99128.06;20981185;28;20047;-69
2021/01/20 14:20:42;;;;;;;10.98;4.70;;;;;;;7.93;67.85;99112.97;20984944;28;20044;-70
2021/01/20 14:30:43;;;;;;;10.18;4.07;;;;;;;7.95;66.88;99114.56;20994785;28;20425;-72
2021/01/20 14:40:43;;;;;;;13.93;8.40;;;;;;;8.06;69.65;99100.84;20996152;28;20041;-72
2021/01/20 14:50:44;;;;;;;15.13;7.40;;;;;;;7.91;70.36;99089.66;20996052;28;20053;-72
2021/01/20 15:00:45;;;;;;;11.57;6.50;;;;;;;7.44;73.66;99097.88;20994332;28;20048;-73
2021/01/20 15:10:46;;;;;;;14.07;6.95;;;;;;;7.28;75.45;99087.56;20995539;28;20059;-72
2021/01/20 15:20:53;;;;;;;15.75;9.05;;;;;;;7.29;75.12;99088.41;20993697;28;20400;-72
2021/01/20 15:30:56;;;;;;;16.63;8.60;;;;;;;7.08;77.44;99089.72;20993787;28;20052;-71
2021/01/20 15:40:57;;;;;;;12.77;7.15;;;;;;;6.84;80.51;99087.69;20992360;28;20045;-71
2021/01/20 15:50:58;;;;;;;8.15;4.75;;;;;;;6.27;79.19;99085.88;20989842;28;20044;-72
2021/01/20 16:00:59;;;;;;;9.15;4.05;;;;;;;5.95;79.51;99087.72;20987871;28;20048;-72
2021/01/20 16:11:00;;;;;;;9.90;4.78;;;;;;;5.40;84.63;99082.97;20988910;28;20048;-71
2021/01/20 16:21:01;;;;;;;24.20;10.85;;;;;;;5.06;86.46;99077.91;20985548;28;20048;-71
2021/01/20 16:31:03;;;;;;;38.42;18.10;;;;;;;4.87;87.67;99082.38;20988911;28;20048;-71
2021/01/20 16:41:05;;;;;;;40.05;20.38;;;;;;;4.79;88.82;99056.84;20987578;28;20048;-72
2021/01/20 16:51:06;;;;;;;53.08;28.35;;;;;;;4.98;87.67;99060.16;20988061;28;20048;-72
2021/01/20 17:01:07;;;;;;;44.10;22.67;;;;;;;5.25;85.07;99046.63;20985544;28;20051;-72
2021/01/20 17:11:08;;;;;;;42.13;21.55;;;;;;;5.11;86.38;99040.44;20961173;28;20041;-71
2021/01/20 17:21:09;;;;;;;47.53;24.15;;;;;;;5.02;87.03;99038.34;20984590;28;20041;-71
2021/01/20 17:31:10;;;;;;;38.92;19.20;;;;;;;5.00;85.80;99027.22;20982115;28;20099;-70
2021/01/20 17:41:11;;;;;;;38.83;19.88;;;;;;;5.01;86.65;99028.88;20983611;28;20086;-70
2021/01/20 17:51:13;;;;;;;29.52;16.20;;;;;;;4.83;87.76;99019.47;20981848;28;20493;-71
2021/01/20 18:01:14;;;;;;;30.00;16.25;;;;;;;4.86;86.75;99023.69;20997099;28;20385;-70
2021/01/20 18:11:16;;;;;;;25.45;14.85;;;;;;;4.68;88.39;99021.13;20998056;28;20048;-70
2021/01/20 18:21:19;;;;;;;17.25;8.95;;;;;;;4.47;90.25;99016.25;20996935;28;20044;-70
2021/01/20 18:31:20;;;;;;;17.67;7.53;;;;;;;4.35;90.80;99024.63;20995415;28;20126;-70
2021/01/20 18:41:21;;;;;;;12.75;6.90;;;;;;;4.20;92.43;99024.50;20976940;28;20048;-70
2021/01/20 18:51:22;;;;;;;12.07;6.07;;;;;;;4.02;92.87;99024.56;20994411;28;20045;-71
2021/01/20 19:01:23;;;;;;;10.68;5.40;;;;;;;3.92;91.81;99000.88;20993318;28;20095;-70
2021/01/20 19:11:24;;;;;;;10.27;5.38;;;;;;;3.73;94.58;99013.06;20992813;28;20478;-70
2021/01/20 19:21:26;;;;;;;15.88;7.40;;;;;;;3.48;96.22;98997.03;20993244;28;20416;-70
2021/01/20 19:31:27;;;;;;;17.40;8.85;;;;;;;3.28;96.41;98983.31;20991761;28;20060;-71
2021/01/20 19:41:28;;;;;;;16.92;10.73;;;;;;;3.09;96.65;98976.50;20990866;28;20103;-70
2021/01/20 19:51:29;;;;;;;17.55;10.52;;;;;;;2.84;97.49;98974.22;20990730;28;20064;-70
2021/01/20 20:01:31;;;;;;;17.25;9.52;;;;;;;2.70;97.67;98981.72;20988320;28;20102;-70
2021/01/20 20:11:32;;;;;;;19.67;10.48;;;;;;;2.43;98.78;98984.66;20988718;28;20451;-70
2021/01/20 20:21:33;;;;;;;21.45;11.35;;;;;;;2.30;99.57;98983.50;20988549;28;20105;-70
2021/01/20 20:31:34;;;;;;;12.73;6.40;;;;;;;2.21;100.00;98977.91;20978564;28;20064;-71
2021/01/20 20:41:35;;;;;;;14.77;6.70;;;;;;;2.08;99.25;98962.13;20986586;28;20036;-71
2021/01/20 20:51:36;;;;;;;15.45;8.88;;;;;;;1.97;100.00;98972.06;20984714;28;20056;-71
2021/01/20 21:01:38;;;;;;;20.95;10.52;;;;;;;1.96;100.00;98960.91;20982891;28;20131;-70
2021/01/20 21:11:39;;;;;;;25.33;14.30;;;;;;;2.08;99.01;98954.38;20983562;28;20123;-70
2021/01/20 21:21:40;;;;;;;20.88;11.85;;;;;;;2.07;99.53;98953.53;20982679;28;20041;-71
2021/01/20 21:31:41;;;;;;;23.95;13.07;;;;;;;2.04;99.81;98950.22;20980137;28;20207;-71
2021/01/20 21:41:42;;;;;;;27.92;15.90;;;;;;;2.05;100.00;98945.03;20979279;28;20439;-72
2021/01/20 21:51:43;;;;;;;32.92;18.80;;;;;;;1.97;99.96;98921.31;20982938;28;20424;-72
2021/01/20 22:01:44;;;;;;;37.95;21.00;;;;;;;2.01;100.00;98919.41;20981780;28;20044;-72
2021/01/20 22:11:45;;;;;;;38.60;21.50;;;;;;;2.13;100.00;98899.06;20982604;28;20594;-72
2021/01/20 22:21:46;;;;;;;34.75;20.33;;;;;;;2.17;99.74;98886.88;20982250;28;20044;-72
2021/01/20 22:31:47;;;;;;;38.38;19.80;;;;;;;2.06;100.00;98881.34;20980399;28;20064;-72
2021/01/20 22:41:49;;;;;;;31.00;17.63;;;;;;;2.09;100.00;98876.03;20988139;28;20133;-72
2021/01/20 22:51:49;;;;;;;30.92;17.55;;;;;;;2.15;99.20;98861.13;20996915;28;20048;-71
2021/01/20 23:01:50;;;;;;;34.53;16.23;;;;;;;2.09;99.42;98839.91;20994149;28;20060;-72
2021/01/20 23:11:55;;;;;;;32.15;16.23;;;;;;;2.28;98.78;98840.78;20985620;28;20479;-72
2021/01/20 23:21:56;;;;;;;33.20;18.57;;;;;;;2.21;98.56;98821.31;20969469;28;20041;-72
2021/01/20 23:31:57;;;;;;;29.98;16.23;;;;;;;2.15;100.00;98804.34;20985467;28;20075;-72
2021/01/20 23:41:58;;;;;;;25.80;13.48;;;;;;;2.17;98.12;98804.28;20985698;28;20102;-72
2021/01/20 23:51:59;;;;;;;22.58;12.35;;;;;;;2.03;99.04;98796.34;20950277;28;20435;-72
